x

Boston 16 Nm East Of Boston, Ma (44013) Wave Buoy

8:50pm - Sat 21st Oct 2017 All times are EDT. -4 hours from GMT.

  • Sig Wave height 1.0ft
  • Swell Direction
  • Peak Period 3s
  • Average Period 3s
  • Wind
    9mph, 9mph gusts
  • Sea Temp 59°f
  • Air Temp 61°f
  • Sea Pressure 1025.7mb
  • Boston 16 Nm East Of Boston, Ma
  • Boston 16 Nm East Of Boston, Ma

More Historic Weather Station data

Upgrade to MSW Pro to gain access to the past 30 days of data for over 8000 Wavebouys and Weather Stations around the globe.

Join

Comparision Forecast

View Surf forecast
   
Sat 10/21 8:50pm 1ft 3s 3s 9 9 mph 1025.7mb 59f 61f
7:50pm 1ft 3s 3s 11 11 mph 1025.6mb 59f 62f
6:50pm 1ft 9s 3s 11 13 mph 1025.2mb 59f 64f
5:50pm 0.7ft  -  4s 11 13 mph 1024.5mb 59f 65f
4:50pm 0.7ft  -  4s 13 13 mph 1023.6mb 60f 66f
3:50pm 0.7ft  -  4s 9 11 mph 1023.7mb 60f 64f
2:50pm 0.7ft  -  4s 7 9 mph 1023.6mb 60f 62f
1:50pm 0.7ft  -  4s 9 11 mph 1023.8mb 60f 62f
12:50pm 0.7ft  -  5s 7 9 mph 1024.4mb 60f 62f
11:50am 1ft 8s 5s 11 11 mph 1024.7mb 59f 60f
10:50am 0.7ft  -  5s 7 9 mph 1025mb 59f 58f
9:50am 1ft 8s 5s 4 7 mph 1024.8mb 59f 58f
8:50am 1ft 8s 5s 9 11 mph 1024.6mb 59f 57f
7:50am 0.7ft  -  6s 7 9 mph 1023.7mb 59f 57f
6:50am 0.7ft  -  6s 4 7 mph 1023.3mb 59f 58f
5:50am 0.7ft  -  6s 4 4 mph 1023.1mb 59f 58f
4:50am 0.7ft  -  6s 7 7 mph 1022.5mb 59f 58f
3:50am 0.7ft  -  5s 4 4 mph 1022.2mb 59f 59f
2:50am 0.7ft  -  5s 4 7 mph 1021.5mb 59f 59f
1:50am 0.7ft  -  4s 4 4 mph 1021.5mb 59f 60f
12:50am 1ft 8s 4s 9 9 mph 1020.4mb 59f 60f
Fri 10/20 11:50pm 1ft 9s 3s 9 11 mph 1020mb 59f 60f
10:50pm 1ft 3s 3s 11 13 mph 1019.4mb 59f 61f
9:50pm 1ft 8s 3s 16 18 mph 1018.5mb 59f 62f
8:50pm 1ft 9s 4s 11 11 mph 1018mb 59f 61f
7:50pm 1.3ft 9s 3s 11 11 mph 1017.3mb 59f 62f
6:50pm 1.3ft 3s 3s 9 11 mph 1016.7mb 59f 63f
5:50pm 1.3ft 3s 3s 9 11 mph 1016mb 59f 62f
4:50pm 1ft 8s 3s 11 13 mph 1015.5mb 60f 64f
3:50pm 1ft 8s 3s 11 13 mph 1015.2mb 60f 63f
2:50pm 1.3ft 3s 3s 11 13 mph 1015mb 59f 62f
1:50pm 1.3ft 3s 3s 11 13 mph 1015.3mb 59f 62f
12:50pm 1.3ft 3s 3s 11 13 mph 1015.9mb 59f 61f
11:50am 1.6ft 3s 3s 16 18 mph 1016.4mb 59f 61f
10:50am 1.6ft 3s 3s 13 16 mph 1016.9mb 59f 60f
9:50am 2ft 3s 3s 16 18 mph 1016.8mb 59f 60f
8:50am 1.6ft 3s 4s 16 20 mph 1016.5mb 59f 59f
7:50am 1.3ft 8s 4s 13 16 mph 1015.8mb 58f 59f
6:50am 1.6ft 3s 3s 11 13 mph 1015.1mb 58f 59f
5:50am 1.6ft 9s 3s 16 18 mph 1014.9mb 58f 60f
4:50am 1.6ft 3s 3s 13 16 mph 1014.9mb 58f 59f
3:50am 1.6ft 3s 3s 16 18 mph 1014.1mb 58f 59f
2:50am 2ft 3s 3s 18 20 mph 1014mb 58f 60f
1:50am 2ft 3s 3s 18 20 mph 1014.6mb 58f 59f
12:50am 2.5ft 3s 3s 20 22 mph 1014.7mb 58f 60f
Thu 10/19 11:50pm 2.5ft 4s 3s 20 22 mph 1014.5mb 58f 59f
10:50pm 2.5ft 4s 3s 18 22 mph 1015.2mb 58f 60f
9:50pm 2.5ft 3s 4s 18 22 mph 1016mb 58f 60f
8:50pm 2.5ft 4s  -  20 25 mph 1015.3mb 58f 60f
7:50pm 2.5ft 4s 4s 20 25 mph 1015.4mb 59f 60f
6:50pm 2.5ft 4s 4s 20 22 mph 1015.9mb 59f 61f
5:50pm 2ft 4s 3s 20 22 mph 1015.6mb 59f 62f
4:50pm 2ft 3s 3s 20 22 mph 1016.3mb 59f 65f
3:50pm 2ft 3s 3s 16 18 mph 1017.3mb 59f 64f
2:50pm 2ft 3s 3s 16 16 mph 1017.9mb 59f 65f
1:50pm 1.6ft 3s 3s 13 16 mph 1018.9mb 59f 64f
12:50pm 1.6ft 9s 3s 16 18 mph 1020mb 59f 64f
11:50am 1.3ft 10s 3s 11 13 mph 1021.1mb 59f 63f
10:50am 1.3ft 3s 3s 9 11 mph 1022mb 58f 60f
9:50am 1.3ft 3s 3s 13 16 mph 1022.5mb 58f 58f
8:50am 1.3ft 3s 3s 13 16 mph 1022.8mb 58f 56f
7:50am 1.3ft 10s 3s 11 13 mph 1022.9mb 58f 57f
6:50am 1.3ft 10s 3s 11 11 mph 1022.9mb 58f 57f
5:50am 1.3ft 3s 3s 11 13 mph 1023.1mb 58f 57f
4:50am 1ft 2s 3s 7 9 mph 1023.3mb 59f 58f
3:50am 0.7ft  -  4s 7 9 mph 1023.2mb 58f 57f
2:50am 0.7ft  -  5s 11 13 mph 1023.8mb 58f 58f
1:50am 0.7ft  -  4s 7 11 mph 1023.7mb 58f 58f
12:50am 0.7ft  -  4s 9 9 mph 1023.8mb 58f 58f
Wed 10/18 11:50pm 0.7ft  -  6s 11 13 mph 1024.1mb 59f 58f
10:50pm 0.7ft  -  6s 9 11 mph 1024.3mb 59f 59f
9:50pm 0.7ft  -  6s 9 11 mph 1024.4mb 59f 60f
8:50pm 0.7ft  -  5s 9 11 mph 1024.3mb 59f 60f
7:50pm 0.7ft  -  6s 9 9 mph 1024.2mb 60f 60f
6:50pm 0.7ft  -  6s 9 9 mph 1024mb 60f 61f
5:50pm 1ft 9s 7s 4 9 mph 1023.5mb 61f 65f
4:50pm 0.7ft  -  6s 4 4 mph 1023.1mb 61f 67f
3:50pm 0.7ft  -  6s  -  2 mph 1023.2mb 61f 66f
2:50pm 0.7ft  -  5s 2 4 mph 1022.9mb 60f 63f
1:50pm 1ft 10s 4s 4 7 mph 1022.9mb 60f 61f
12:50pm 1ft 9s 3s 9 11 mph 1023.4mb 59f 61f
11:50am 1.3ft 3s 3s 11 13 mph 1023.9mb 59f 60f
10:50am 1.6ft 3s 3s 16 16 mph 1023.4mb 59f 58f
9:50am 1.6ft 3s 3s 18 20 mph 1023.3mb 59f 56f
8:50am 2ft 3s 3s 16 20 mph 1022.8mb 59f 54f
7:50am 2ft 3s 3s 18 20 mph 1022.3mb 59f 54f
6:50am 2.5ft 3s 3s 18 20 mph 1021.7mb 59f 53f
5:50am 2.5ft 3s 3s 20 22 mph 1021.7mb 59f 53f
4:50am 2.5ft 4s 3s 22 27 mph 1021.1mb 59f 53f
3:50am 2.5ft 3s 3s 22 27 mph 1020.9mb 59f 53f
2:50am 2.5ft 3s 3s 22 27 mph 1021.3mb 59f 54f
1:50am 2.5ft 3s 3s 20 25 mph 1022mb 59f 52f